FNBG METAR and TAF | Updated Today

FNBG METAR

Benguela Airport

Benguela Airport (FNBG) hasn't published a METAR.
We found the following current weather conditions for Docota from other sources.

Benguela Airport (FNBG) METAR

  • Weather conditions right now at FNBG:
  • Present conditions: Clouds
  • Clouds: Overcast clouds
  • Cloud cover: 97%
  • Wind: 254 at 4kts
  • Temperature: 23.2 celsius
  • Feels like: 23.9 celsius
  • Pressure: 1013mb
  • Humidity: 86%


Useful to know...

FNBG TAF

Benguela Airport

TAF FNBG 292300Z 2900/2912 VRB03KT 9999 SCT020 BECMG 2910/2912 32008KT CAVOK
Observation time: -173 min. ago
Need help? Read our tutorial on how to read TAFs or read the parsed version below.

Parsed version of TAF for Benguela Airport (FNBG)

  • From 29 September at 00:00 UTC, to day 29 of the month at 12:00 UTC
  • Clouds: Scattered at 610 meters
  • Visibility: Greater than 10 km
  • Wind: Variable at 3
  • Expected to arise soon, from 29 September at 10:00 UTC, to day 29 of the month at 12:00 UTC
  • Visibility: Greater than 10 km
  • Wind: 320 degrees at 8